sensor_id;sensor_type;location;lat;lon;timestamp;pressure;altitude;pressure_sealevel;temperature;humidity
37792;BME280;29527;55.766;37.570;2022-12-18T00:02:21;99354.53;;;-2.93;71.26
37792;BME280;29527;55.766;37.570;2022-12-18T00:04:47;99334.69;;;-3.00;71.37
37792;BME280;29527;55.766;37.570;2022-12-18T00:07:12;99355.16;;;-3.12;71.78
37792;BME280;29527;55.766;37.570;2022-12-18T00:09:38;99334.19;;;-3.12;71.38
37792;BME280;29527;55.766;37.570;2022-12-18T00:12:03;99337.78;;;-3.16;71.34
37792;BME280;29527;55.766;37.570;2022-12-18T00:14:29;99326.81;;;-3.27;71.79
37792;BME280;29527;55.766;37.570;2022-12-18T00:16:54;99331.56;;;-3.12;71.44
37792;BME280;29527;55.766;37.570;2022-12-18T00:19:20;99329.44;;;-3.00;70.71
37792;BME280;29527;55.766;37.570;2022-12-18T00:21:45;99301.81;;;-3.38;71.75
37792;BME280;29527;55.766;37.570;2022-12-18T00:24:11;99327.03;;;-3.34;72.64
37792;BME280;29527;55.766;37.570;2022-12-18T00:26:38;99315.75;;;-3.09;71.88
37792;BME280;29527;55.766;37.570;2022-12-18T00:29:07;99300.19;;;-3.13;71.76
37792;BME280;29527;55.766;37.570;2022-12-18T00:31:33;99299.13;;;-3.08;71.58
37792;BME280;29527;55.766;37.570;2022-12-18T00:33:59;99303.38;;;-3.04;70.80
37792;BME280;29527;55.766;37.570;2022-12-18T00:36:27;99290.41;;;-3.08;70.78
37792;BME280;29527;55.766;37.570;2022-12-18T00:38:54;99295.50;;;-3.04;70.92
37792;BME280;29527;55.766;37.570;2022-12-18T00:41:20;99300.22;;;-3.15;71.31
37792;BME280;29527;55.766;37.570;2022-12-18T00:44:06;99288.50;;;-3.03;70.99
37792;BME280;29527;55.766;37.570;2022-12-18T00:46:33;99291.75;;;-3.22;70.87
37792;BME280;29527;55.766;37.570;2022-12-18T00:48:59;99288.75;;;-3.11;70.94
37792;BME280;29527;55.766;37.570;2022-12-18T00:51:26;99288.38;;;-3.27;70.97
37792;BME280;29527;55.766;37.570;2022-12-18T00:53:52;99260.66;;;-3.33;71.68
37792;BME280;29527;55.766;37.570;2022-12-18T00:56:18;99274.69;;;-3.35;72.06
37792;BME280;29527;55.766;37.570;2022-12-18T00:58:43;99267.16;;;-3.44;72.56
37792;BME280;29527;55.766;37.570;2022-12-18T01:01:08;99268.22;;;-3.23;71.48
37792;BME280;29527;55.766;37.570;2022-12-18T01:03:34;99262.28;;;-3.28;71.92
37792;BME280;29527;55.766;37.570;2022-12-18T01:06:08;99255.13;;;-3.23;71.56
37792;BME280;29527;55.766;37.570;2022-12-18T01:08:34;99250.47;;;-3.15;70.66
37792;BME280;29527;55.766;37.570;2022-12-18T01:11:01;99233.91;;;-3.15;70.53
37792;BME280;29527;55.766;37.570;2022-12-18T01:13:27;99205.25;;;-3.46;71.07
37792;BME280;29527;55.766;37.570;2022-12-18T01:15:52;99240.56;;;-3.32;71.03
37792;BME280;29527;55.766;37.570;2022-12-18T01:18:18;99224.81;;;-3.30;70.30
37792;BME280;29527;55.766;37.570;2022-12-18T01:20:43;99227.47;;;-3.32;71.24
37792;BME280;29527;55.766;37.570;2022-12-18T01:23:09;99234.41;;;-3.31;71.01
37792;BME280;29527;55.766;37.570;2022-12-18T01:25:38;99220.88;;;-3.17;70.14
37792;BME280;29527;55.766;37.570;2022-12-18T01:28:03;99223.94;;;-3.31;70.46
37792;BME280;29527;55.766;37.570;2022-12-18T01:30:28;99226.09;;;-3.42;71.28
37792;BME280;29527;55.766;37.570;2022-12-18T01:32:54;99223.41;;;-3.41;71.33
37792;BME280;29527;55.766;37.570;2022-12-18T01:35:19;99231.78;;;-3.29;71.37
37792;BME280;29527;55.766;37.570;2022-12-18T01:37:45;99242.13;;;-3.26;70.83
37792;BME280;29527;55.766;37.570;2022-12-18T01:40:10;99217.97;;;-3.35;71.84
37792;BME280;29527;55.766;37.570;2022-12-18T01:42:36;99186.97;;;-3.47;71.29
37792;BME280;29527;55.766;37.570;2022-12-18T01:47:48;99210.41;;;-3.17;70.96
37792;BME280;29527;55.766;37.570;2022-12-18T01:52:46;99219.41;;;-3.26;71.18
37792;BME280;29527;55.766;37.570;2022-12-18T01:55:12;99185.25;;;-3.48;70.72
37792;BME280;29527;55.766;37.570;2022-12-18T01:57:40;99212.69;;;-3.33;71.13
37792;BME280;29527;55.766;37.570;2022-12-18T02:00:13;99222.78;;;-3.22;71.38
37792;BME280;29527;55.766;37.570;2022-12-18T02:02:40;99215.63;;;-3.17;70.89
37792;BME280;29527;55.766;37.570;2022-12-18T02:05:07;99226.22;;;-3.20;71.08
37792;BME280;29527;55.766;37.570;2022-12-18T02:10:26;99219.97;;;-3.16;70.73
37792;BME280;29527;55.766;37.570;2022-12-18T02:15:36;99217.41;;;-3.18;70.90
37792;BME280;29527;55.766;37.570;2022-12-18T02:18:09;99224.50;;;-3.21;70.60
37792;BME280;29527;55.766;37.570;2022-12-18T02:28:42;99233.38;;;-3.25;70.78
37792;BME280;29527;55.766;37.570;2022-12-18T02:31:13;99227.81;;;-3.16;70.42
37792;BME280;29527;55.766;37.570;2022-12-18T02:33:40;99220.50;;;-3.32;70.69
37792;BME280;29527;55.766;37.570;2022-12-18T02:36:08;99219.81;;;-3.37;70.89
37792;BME280;29527;55.766;37.570;2022-12-18T02:38:34;99211.03;;;-3.36;71.39
37792;BME280;29527;55.766;37.570;2022-12-18T02:41:01;99224.59;;;-3.24;71.17
37792;BME280;29527;55.766;37.570;2022-12-18T02:43:29;99215.03;;;-3.25;70.62
37792;BME280;29527;55.766;37.570;2022-12-18T02:45:58;99224.41;;;-3.18;70.72
37792;BME280;29527;55.766;37.570;2022-12-18T02:48:34;99218.31;;;-3.19;70.41
37792;BME280;29527;55.766;37.570;2022-12-18T02:51:29;99214.47;;;-3.08;70.57
37792;BME280;29527;55.766;37.570;2022-12-18T02:54:03;99203.78;;;-3.27;69.85
37792;BME280;29527;55.766;37.570;2022-12-18T02:56:51;99233.78;;;-3.11;69.90
37792;BME280;29527;55.766;37.570;2022-12-18T02:59:31;99227.78;;;-3.14;69.75
37792;BME280;29527;55.766;37.570;2022-12-18T03:02:21;99217.34;;;-3.16;69.95
37792;BME280;29527;55.766;37.570;2022-12-18T03:05:16;99227.66;;;-3.11;70.09
37792;BME280;29527;55.766;37.570;2022-12-18T03:07:51;99212.03;;;-3.13;69.59
37792;BME280;29527;55.766;37.570;2022-12-18T03:10:22;99208.66;;;-3.17;69.20
37792;BME280;29527;55.766;37.570;2022-12-18T03:13:20;99198.03;;;-3.12;69.51
37792;BME280;29527;55.766;37.570;2022-12-18T03:15:50;99206.50;;;-3.30;69.44
37792;BME280;29527;55.766;37.570;2022-12-18T03:21:05;99208.31;;;-3.33;69.79
37792;BME280;29527;55.766;37.570;2022-12-18T03:23:36;99207.69;;;-3.41;69.56
37792;BME280;29527;55.766;37.570;2022-12-18T03:26:06;99201.63;;;-3.41;70.00
37792;BME280;29527;55.766;37.570;2022-12-18T03:28:36;99200.63;;;-3.39;69.64
37792;BME280;29527;55.766;37.570;2022-12-18T03:31:05;99215.66;;;-3.44;70.03
37792;BME280;29527;55.766;37.570;2022-12-18T03:34:09;99224.72;;;-3.27;70.53
37792;BME280;29527;55.766;37.570;2022-12-18T03:36:38;99227.47;;;-3.32;69.77
37792;BME280;29527;55.766;37.570;2022-12-18T03:39:04;99215.41;;;-3.36;69.40
37792;BME280;29527;55.766;37.570;2022-12-18T03:41:32;99220.75;;;-3.39;69.72
37792;BME280;29527;55.766;37.570;2022-12-18T03:44:11;99216.44;;;-3.42;69.22
37792;BME280;29527;55.766;37.570;2022-12-18T03:46:48;99207.69;;;-3.41;69.55
37792;BME280;29527;55.766;37.570;2022-12-18T03:49:26;99177.16;;;-3.67;69.71
37792;BME280;29527;55.766;37.570;2022-12-18T03:52:06;99204.16;;;-3.40;69.51
37792;BME280;29527;55.766;37.570;2022-12-18T03:54:35;99199.25;;;-3.49;69.71
37792;BME280;29527;55.766;37.570;2022-12-18T03:57:07;99207.13;;;-3.51;69.43
37792;BME280;29527;55.766;37.570;2022-12-18T03:59:35;99190.16;;;-3.64;69.35
37792;BME280;29527;55.766;37.570;2022-12-18T04:02:03;99213.25;;;-3.50;69.36
37792;BME280;29527;55.766;37.570;2022-12-18T04:04:32;99216.66;;;-3.48;69.13
37792;BME280;29527;55.766;37.570;2022-12-18T04:06:58;99209.03;;;-3.54;69.54
37792;BME280;29527;55.766;37.570;2022-12-18T04:09:25;99212.31;;;-3.48;70.03
37792;BME280;29527;55.766;37.570;2022-12-18T04:11:51;99194.81;;;-3.47;69.39
37792;BME280;29527;55.766;37.570;2022-12-18T04:14:17;99214.00;;;-3.47;68.96
37792;BME280;29527;55.766;37.570;2022-12-18T04:16:42;99214.16;;;-3.51;69.25
37792;BME280;29527;55.766;37.570;2022-12-18T04:19:08;99218.59;;;-3.53;69.87
37792;BME280;29527;55.766;37.570;2022-12-18T04:21:33;99217.69;;;-3.52;68.73
37792;BME280;29527;55.766;37.570;2022-12-18T04:23:58;99247.22;;;-3.49;69.04
37792;BME280;29527;55.766;37.570;2022-12-18T04:26:24;99250.81;;;-3.53;68.95
37792;BME280;29527;55.766;37.570;2022-12-18T04:28:49;99257.78;;;-3.52;69.12
37792;BME280;29527;55.766;37.570;2022-12-18T04:31:15;99263.72;;;-3.47;69.25
37792;BME280;29527;55.766;37.570;2022-12-18T04:33:40;99265.59;;;-3.50;68.96
37792;BME280;29527;55.766;37.570;2022-12-18T04:36:06;99260.66;;;-3.59;68.56
37792;BME280;29527;55.766;37.570;2022-12-18T04:38:32;99277.91;;;-3.54;68.66
37792;BME280;29527;55.766;37.570;2022-12-18T04:40:57;99280.72;;;-3.60;69.50
37792;BME280;29527;55.766;37.570;2022-12-18T04:43:23;99294.56;;;-3.56;69.31
37792;BME280;29527;55.766;37.570;2022-12-18T04:45:48;99279.78;;;-3.57;68.88
37792;BME280;29527;55.766;37.570;2022-12-18T04:48:14;99294.41;;;-3.52;69.22
37792;BME280;29527;55.766;37.570;2022-12-18T04:50:39;99300.63;;;-3.54;69.26
37792;BME280;29527;55.766;37.570;2022-12-18T04:53:05;99313.78;;;-3.57;70.06
37792;BME280;29527;55.766;37.570;2022-12-18T04:55:30;99315.53;;;-3.58;69.69
37792;BME280;29527;55.766;37.570;2022-12-18T04:57:56;99306.03;;;-3.61;69.40
37792;BME280;29527;55.766;37.570;2022-12-18T05:00:21;99301.72;;;-3.62;69.50
37792;BME280;29527;55.766;37.570;2022-12-18T05:02:47;99308.81;;;-3.67;69.62
37792;BME280;29527;55.766;37.570;2022-12-18T05:05:13;99292.31;;;-3.69;69.89
37792;BME280;29527;55.766;37.570;2022-12-18T05:07:38;99295.75;;;-3.67;69.24
37792;BME280;29527;55.766;37.570;2022-12-18T05:10:07;99289.91;;;-3.75;70.02
37792;BME280;29527;55.766;37.570;2022-12-18T05:12:32;99296.81;;;-3.72;69.65
37792;BME280;29527;55.766;37.570;2022-12-18T05:14:58;99305.50;;;-3.72;69.90
37792;BME280;29527;55.766;37.570;2022-12-18T05:17:23;99303.75;;;-3.71;69.86
37792;BME280;29527;55.766;37.570;2022-12-18T05:19:49;99296.03;;;-3.76;70.28
37792;BME280;29527;55.766;37.570;2022-12-18T05:22:14;99301.16;;;-3.73;70.24
37792;BME280;29527;55.766;37.570;2022-12-18T05:24:40;99308.81;;;-3.67;69.48
37792;BME280;29527;55.766;37.570;2022-12-18T05:27:05;99312.63;;;-3.77;70.08
37792;BME280;29527;55.766;37.570;2022-12-18T05:29:31;99322.88;;;-3.69;69.47
37792;BME280;29527;55.766;37.570;2022-12-18T05:31:56;99323.22;;;-3.82;69.97
37792;BME280;29527;55.766;37.570;2022-12-18T05:34:22;99339.72;;;-3.80;69.40
37792;BME280;29527;55.766;37.570;2022-12-18T05:36:47;99345.03;;;-3.81;69.43
37792;BME280;29527;55.766;37.570;2022-12-18T05:39:13;99343.41;;;-3.85;69.34
37792;BME280;29527;55.766;37.570;2022-12-18T05:41:38;99361.78;;;-3.89;70.15
37792;BME280;29527;55.766;37.570;2022-12-18T05:44:04;99364.34;;;-3.85;69.72
37792;BME280;29527;55.766;37.570;2022-12-18T05:46:29;99349.47;;;-3.85;69.78
37792;BME280;29527;55.766;37.570;2022-12-18T05:48:55;99359.91;;;-3.83;69.21
37792;BME280;29527;55.766;37.570;2022-12-18T05:51:22;99354.59;;;-3.80;69.40
37792;BME280;29527;55.766;37.570;2022-12-18T05:53:48;99371.28;;;-3.84;69.16
37792;BME280;29527;55.766;37.570;2022-12-18T05:56:17;99380.84;;;-3.83;69.10
37792;BME280;29527;55.766;37.570;2022-12-18T05:58:43;99387.03;;;-3.87;68.77
37792;BME280;29527;55.766;37.570;2022-12-18T06:03:39;99367.16;;;-3.93;69.15
37792;BME280;29527;55.766;37.570;2022-12-18T06:06:32;99391.34;;;-3.86;68.91
37792;BME280;29527;55.766;37.570;2022-12-18T06:08:58;99398.28;;;-3.84;68.96
37792;BME280;29527;55.766;37.570;2022-12-18T06:11:26;99376.66;;;-3.91;68.77
37792;BME280;29527;55.766;37.570;2022-12-18T06:13:52;99404.44;;;-3.86;69.14
37792;BME280;29527;55.766;37.570;2022-12-18T06:16:18;99399.28;;;-3.90;69.04
37792;BME280;29527;55.766;37.570;2022-12-18T06:18:44;99414.06;;;-3.87;68.80
37792;BME280;29527;55.766;37.570;2022-12-18T06:21:10;99404.72;;;-3.96;68.66
37792;BME280;29527;55.766;37.570;2022-12-18T06:23:35;99415.09;;;-3.93;68.56
37792;BME280;29527;55.766;37.570;2022-12-18T06:26:19;99416.69;;;-3.87;69.55
37792;BME280;29527;55.766;37.570;2022-12-18T06:28:44;99420.09;;;-3.85;68.94
37792;BME280;29527;55.766;37.570;2022-12-18T06:31:10;99413.94;;;-3.82;68.85
37792;BME280;29527;55.766;37.570;2022-12-18T06:33:36;99427.56;;;-3.71;68.86
37792;BME280;29527;55.766;37.570;2022-12-18T06:36:10;99420.69;;;-3.73;68.21
37792;BME280;29527;55.766;37.570;2022-12-18T06:38:39;99436.88;;;-3.61;68.16
37792;BME280;29527;55.766;37.570;2022-12-18T06:41:09;99430.75;;;-3.59;68.10
37792;BME280;29527;55.766;37.570;2022-12-18T06:43:35;99446.38;;;-3.58;68.13
37792;BME280;29527;55.766;37.570;2022-12-18T06:46:02;99450.59;;;-3.52;67.52
37792;BME280;29527;55.766;37.570;2022-12-18T06:48:28;99463.47;;;-3.44;67.85
37792;BME280;29527;55.766;37.570;2022-12-18T06:50:54;99469.31;;;-3.36;67.20
37792;BME280;29527;55.766;37.570;2022-12-18T06:53:20;99468.53;;;-3.40;66.90
37792;BME280;29527;55.766;37.570;2022-12-18T06:55:45;99484.75;;;-3.27;66.27
37792;BME280;29527;55.766;37.570;2022-12-18T06:58:11;99463.41;;;-3.43;65.81
37792;BME280;29527;55.766;37.570;2022-12-18T07:00:36;99441.16;;;-3.58;66.70
37792;BME280;29527;55.766;37.570;2022-12-18T07:03:02;99493.69;;;-3.34;66.09
37792;BME280;29527;55.766;37.570;2022-12-18T07:05:27;99492.16;;;-3.41;66.39
37792;BME280;29527;55.766;37.570;2022-12-18T07:07:53;99505.06;;;-3.35;66.43
37792;BME280;29527;55.766;37.570;2022-12-18T07:10:18;99500.53;;;-3.28;65.96
37792;BME280;29527;55.766;37.570;2022-12-18T07:12:43;99500.34;;;-3.22;65.54
37792;BME280;29527;55.766;37.570;2022-12-18T07:15:09;99501.97;;;-3.18;65.70
37792;BME280;29527;55.766;37.570;2022-12-18T07:17:34;99472.88;;;-3.39;65.66
37792;BME280;29527;55.766;37.570;2022-12-18T07:20:00;99506.25;;;-3.15;65.76
37792;BME280;29527;55.766;37.570;2022-12-18T07:22:26;99511.38;;;-3.11;65.46
37792;BME280;29527;55.766;37.570;2022-12-18T07:24:51;99512.81;;;-3.00;64.82
37792;BME280;29527;55.766;37.570;2022-12-18T07:27:17;99527.50;;;-2.96;64.70
37792;BME280;29527;55.766;37.570;2022-12-18T07:29:43;99538.72;;;-2.91;64.20
37792;BME280;29527;55.766;37.570;2022-12-18T07:32:08;99548.97;;;-2.83;64.36
37792;BME280;29527;55.766;37.570;2022-12-18T07:34:34;99553.22;;;-2.79;63.96
37792;BME280;29527;55.766;37.570;2022-12-18T07:36:59;99531.75;;;-2.92;64.20
37792;BME280;29527;55.766;37.570;2022-12-18T07:39:25;99559.19;;;-2.74;64.03
37792;BME280;29527;55.766;37.570;2022-12-18T07:41:50;99556.50;;;-2.72;63.42
37792;BME280;29527;55.766;37.570;2022-12-18T07:44:34;99552.41;;;-2.81;63.47
37792;BME280;29527;55.766;37.570;2022-12-18T07:47:00;99555.31;;;-2.91;63.38
37792;BME280;29527;55.766;37.570;2022-12-18T07:49:26;99544.03;;;-2.94;63.66
37792;BME280;29527;55.766;37.570;2022-12-18T07:51:54;99547.53;;;-2.94;64.18
37792;BME280;29527;55.766;37.570;2022-12-18T07:54:20;99531.94;;;-2.98;63.83
37792;BME280;29527;55.766;37.570;2022-12-18T07:56:45;99554.31;;;-2.86;64.03
37792;BME280;29527;55.766;37.570;2022-12-18T07:59:11;99551.47;;;-2.79;63.10
37792;BME280;29527;55.766;37.570;2022-12-18T08:01:36;99553.13;;;-2.76;63.00
37792;BME280;29527;55.766;37.570;2022-12-18T08:04:01;99556.69;;;-2.79;63.13
37792;BME280;29527;55.766;37.570;2022-12-18T08:06:27;99522.47;;;-3.03;62.61
37792;BME280;29527;55.766;37.570;2022-12-18T08:08:53;99521.44;;;-2.97;63.81
37792;BME280;29527;55.766;37.570;2022-12-18T08:11:19;99573.84;;;-2.68;63.11
37792;BME280;29527;55.766;37.570;2022-12-18T08:13:44;99543.59;;;-2.79;63.39
37792;BME280;29527;55.766;37.570;2022-12-18T08:16:09;99584.25;;;-2.65;62.94
37792;BME280;29527;55.766;37.570;2022-12-18T08:18:36;99591.16;;;-2.63;63.23
37792;BME280;29527;55.766;37.570;2022-12-18T08:21:16;99610.91;;;-2.51;63.20
37792;BME280;29527;55.766;37.570;2022-12-18T08:23:42;99623.06;;;-2.48;63.33
37792;BME280;29527;55.766;37.570;2022-12-18T08:26:08;99619.53;;;-2.47;62.59
37792;BME280;29527;55.766;37.570;2022-12-18T08:28:34;99626.41;;;-2.43;62.36
37792;BME280;29527;55.766;37.570;2022-12-18T08:31:00;99630.88;;;-2.47;63.14
37792;BME280;29527;55.766;37.570;2022-12-18T08:33:26;99606.66;;;-2.55;63.53
37792;BME280;29527;55.766;37.570;2022-12-18T08:35:52;99628.81;;;-2.35;63.07
37792;BME280;29527;55.766;37.570;2022-12-18T08:38:17;99638.47;;;-2.37;62.84
37792;BME280;29527;55.766;37.570;2022-12-18T08:41:03;99593.69;;;-2.60;62.58
37792;BME280;29527;55.766;37.570;2022-12-18T08:43:29;99633.47;;;-2.45;62.72
37792;BME280;29527;55.766;37.570;2022-12-18T08:46:13;99626.75;;;-2.55;63.23
37792;BME280;29527;55.766;37.570;2022-12-18T08:48:39;99637.22;;;-2.54;63.28
37792;BME280;29527;55.766;37.570;2022-12-18T08:51:04;99643.47;;;-2.58;63.57
37792;BME280;29527;55.766;37.570;2022-12-18T08:53:30;99646.78;;;-2.53;63.38
37792;BME280;29527;55.766;37.570;2022-12-18T08:55:58;99610.53;;;-2.68;63.29
37792;BME280;29527;55.766;37.570;2022-12-18T08:58:24;99632.00;;;-2.55;63.60
37792;BME280;29527;55.766;37.570;2022-12-18T09:00:49;99648.41;;;-2.49;63.58
37792;BME280;29527;55.766;37.570;2022-12-18T09:03:17;99636.41;;;-2.56;63.79
37792;BME280;29527;55.766;37.570;2022-12-18T09:05:43;99650.03;;;-2.45;63.66
37792;BME280;29527;55.766;37.570;2022-12-18T09:08:10;99644.03;;;-2.48;63.84
37792;BME280;29527;55.766;37.570;2022-12-18T09:10:42;99652.56;;;-2.41;63.94
37792;BME280;29527;55.766;37.570;2022-12-18T09:13:07;99657.78;;;-2.40;63.55
37792;BME280;29527;55.766;37.570;2022-12-18T09:15:33;99658.72;;;-2.42;63.84
37792;BME280;29527;55.766;37.570;2022-12-18T09:17:58;99641.56;;;-2.53;63.95
37792;BME280;29527;55.766;37.570;2022-12-18T09:20:23;99668.66;;;-2.54;64.37
37792;BME280;29527;55.766;37.570;2022-12-18T09:22:49;99666.94;;;-2.55;64.22
37792;BME280;29527;55.766;37.570;2022-12-18T09:25:15;99669.56;;;-2.55;64.63
37792;BME280;29527;55.766;37.570;2022-12-18T09:27:40;99669.28;;;-2.46;65.35
37792;BME280;29527;55.766;37.570;2022-12-18T09:30:06;99672.66;;;-2.40;64.00
37792;BME280;29527;55.766;37.570;2022-12-18T09:32:32;99677.91;;;-2.40;64.31
37792;BME280;29527;55.766;37.570;2022-12-18T09:34:57;99688.22;;;-2.34;63.63
37792;BME280;29527;55.766;37.570;2022-12-18T09:37:23;99701.31;;;-2.34;63.92
37792;BME280;29527;55.766;37.570;2022-12-18T09:39:48;99669.50;;;-2.53;63.87
37792;BME280;29527;55.766;37.570;2022-12-18T09:42:20;99715.06;;;-2.26;64.07
37792;BME280;29527;55.766;37.570;2022-12-18T09:44:50;99721.00;;;-2.21;64.38
37792;BME280;29527;55.766;37.570;2022-12-18T09:47:42;99721.66;;;-2.12;64.19
37792;BME280;29527;55.766;37.570;2022-12-18T09:50:35;99716.31;;;-2.09;64.30
37792;BME280;29527;55.766;37.570;2022-12-18T09:53:19;99729.53;;;-2.12;64.19
37792;BME280;29527;55.766;37.570;2022-12-18T09:55:46;99724.38;;;-2.15;64.44
37792;BME280;29527;55.766;37.570;2022-12-18T09:58:30;99726.00;;;-2.11;64.13
37792;BME280;29527;55.766;37.570;2022-12-18T10:00:57;99736.66;;;-2.18;64.35
37792;BME280;29527;55.766;37.570;2022-12-18T10:03:23;99723.53;;;-2.18;64.50
37792;BME280;29527;55.766;37.570;2022-12-18T10:11:26;99727.00;;;-2.15;63.99
37792;BME280;29527;55.766;37.570;2022-12-18T10:22:11;99745.72;;;-2.28;65.01
37792;BME280;29527;55.766;37.570;2022-12-18T10:24:53;99743.91;;;-2.26;64.46
37792;BME280;29527;55.766;37.570;2022-12-18T10:27:24;99739.44;;;-2.22;64.66
37792;BME280;29527;55.766;37.570;2022-12-18T10:29:50;99756.91;;;-2.23;64.26
37792;BME280;29527;55.766;37.570;2022-12-18T10:32:35;99715.13;;;-2.27;64.71
37792;BME280;29527;55.766;37.570;2022-12-18T10:35:00;99732.56;;;-2.26;64.92
37792;BME280;29527;55.766;37.570;2022-12-18T10:37:28;99742.88;;;-2.20;64.11
37792;BME280;29527;55.766;37.570;2022-12-18T10:40:14;99743.72;;;-2.20;64.76
37792;BME280;29527;55.766;37.570;2022-12-18T10:42:40;99743.81;;;-2.23;64.03
37792;BME280;29527;55.766;37.570;2022-12-18T10:45:15;99752.75;;;-2.30;64.84
37792;BME280;29527;55.766;37.570;2022-12-18T10:47:46;99753.78;;;-2.36;64.45
37792;BME280;29527;55.766;37.570;2022-12-18T10:50:22;99758.34;;;-2.42;64.82
37792;BME280;29527;55.766;37.570;2022-12-18T10:52:57;99774.16;;;-2.46;65.28
37792;BME280;29527;55.766;37.570;2022-12-18T10:55:26;99776.06;;;-2.51;64.79
37792;BME280;29527;55.766;37.570;2022-12-18T10:57:52;99764.97;;;-2.61;65.06
37792;BME280;29527;55.766;37.570;2022-12-18T11:00:30;99790.84;;;-2.48;64.92
37792;BME280;29527;55.766;37.570;2022-12-18T11:02:56;99798.81;;;-2.51;65.12
37792;BME280;29527;55.766;37.570;2022-12-18T11:05:31;99796.91;;;-2.46;64.87
37792;BME280;29527;55.766;37.570;2022-12-18T11:07:58;99814.47;;;-2.50;65.42
37792;BME280;29527;55.766;37.570;2022-12-18T11:10:31;99818.00;;;-2.51;65.40
37792;BME280;29527;55.766;37.570;2022-12-18T11:13:15;99804.25;;;-2.59;65.07
37792;BME280;29527;55.766;37.570;2022-12-18T11:15:42;99819.72;;;-2.50;64.95
37792;BME280;29527;55.766;37.570;2022-12-18T11:18:17;99819.69;;;-2.48;64.82
37792;BME280;29527;55.766;37.570;2022-12-18T11:21:11;99822.34;;;-2.50;65.36
37792;BME280;29527;55.766;37.570;2022-12-18T11:23:53;99831.75;;;-2.42;65.57
37792;BME280;29527;55.766;37.570;2022-12-18T11:26:19;99833.66;;;-2.48;64.89
37792;BME280;29527;55.766;37.570;2022-12-18T11:29:14;99823.16;;;-2.48;65.23
37792;BME280;29527;55.766;37.570;2022-12-18T11:31:42;99799.56;;;-2.81;65.36
37792;BME280;29527;55.766;37.570;2022-12-18T11:36:42;99817.59;;;-2.68;65.94
37792;BME280;29527;55.766;37.570;2022-12-18T11:39:31;99837.34;;;-2.55;66.15
37792;BME280;29527;55.766;37.570;2022-12-18T11:42:13;99838.28;;;-2.57;65.66
37792;BME280;29527;55.766;37.570;2022-12-18T11:49:43;99839.16;;;-2.57;65.85
37792;BME280;29527;55.766;37.570;2022-12-18T11:52:10;99846.13;;;-2.57;65.29
37792;BME280;29527;55.766;37.570;2022-12-18T11:54:40;99853.91;;;-2.54;65.46
37792;BME280;29527;55.766;37.570;2022-12-18T11:59:47;99860.66;;;-2.79;65.69
37792;BME280;29527;55.766;37.570;2022-12-18T12:10:42;99894.00;;;-2.84;66.17
37792;BME280;29527;55.766;37.570;2022-12-18T12:13:30;99897.69;;;-2.93;66.18
37792;BME280;29527;55.766;37.570;2022-12-18T12:26:40;99925.50;;;-2.87;65.92
37792;BME280;29527;55.766;37.570;2022-12-18T12:29:47;99926.09;;;-2.76;65.73
37792;BME280;29527;55.766;37.570;2022-12-18T12:35:09;99944.59;;;-2.82;65.12
37792;BME280;29527;55.766;37.570;2022-12-18T12:40:26;99943.72;;;-2.82;65.52
37792;BME280;29527;55.766;37.570;2022-12-18T12:43:00;99957.88;;;-2.90;65.99
37792;BME280;29527;55.766;37.570;2022-12-18T12:45:48;99962.31;;;-2.93;65.62
37792;BME280;29527;55.766;37.570;2022-12-18T12:48:43;99962.19;;;-2.87;66.25
37792;BME280;29527;55.766;37.570;2022-12-18T12:51:20;99972.78;;;-2.93;66.52
37792;BME280;29527;55.766;37.570;2022-12-18T12:53:47;99976.66;;;-2.70;65.89
37792;BME280;29527;55.766;37.570;2022-12-18T12:56:14;99986.59;;;-2.85;65.54
37792;BME280;29527;55.766;37.570;2022-12-18T13:01:38;99989.28;;;-2.88;65.79
37792;BME280;29527;55.766;37.570;2022-12-18T13:04:21;100002.41;;;-2.88;66.12
37792;BME280;29527;55.766;37.570;2022-12-18T13:07:01;100003.28;;;-2.89;66.05
37792;BME280;29527;55.766;37.570;2022-12-18T13:09:33;100004.16;;;-2.90;66.27
37792;BME280;29527;55.766;37.570;2022-12-18T13:12:18;100020.53;;;-2.79;66.18
37792;BME280;29527;55.766;37.570;2022-12-18T13:15:13;100031.00;;;-2.79;65.99
37792;BME280;29527;55.766;37.570;2022-12-18T13:17:46;100025.00;;;-2.84;66.38
37792;BME280;29527;55.766;37.570;2022-12-18T13:20:13;100029.31;;;-2.81;66.20
37792;BME280;29527;55.766;37.570;2022-12-18T13:22:47;100039.53;;;-2.70;66.36
37792;BME280;29527;55.766;37.570;2022-12-18T13:25:33;100041.41;;;-2.74;65.47
37792;BME280;29527;55.766;37.570;2022-12-18T13:28:03;100034.81;;;-2.94;66.29
37792;BME280;29527;55.766;37.570;2022-12-18T13:38:21;100066.94;;;-2.84;66.25
37792;BME280;29527;55.766;37.570;2022-12-18T13:48:21;100053.25;;;-2.98;66.30
37792;BME280;29527;55.766;37.570;2022-12-18T13:50:50;100101.75;;;-2.77;65.90
37792;BME280;29527;55.766;37.570;2022-12-18T13:53:44;100067.03;;;-2.90;65.83
37792;BME280;29527;55.766;37.570;2022-12-18T13:56:29;100103.34;;;-2.71;66.70
37792;BME280;29527;55.766;37.570;2022-12-18T13:59:15;100110.91;;;-2.57;66.52
37792;BME280;29527;55.766;37.570;2022-12-18T14:01:45;100120.47;;;-2.55;65.82
37792;BME280;29527;55.766;37.570;2022-12-18T14:04:20;100140.41;;;-2.46;65.71
37792;BME280;29527;55.766;37.570;2022-12-18T14:06:47;100120.72;;;-2.66;66.42
37792;BME280;29527;55.766;37.570;2022-12-18T14:09:15;100131.19;;;-2.64;66.16
37792;BME280;29527;55.766;37.570;2022-12-18T14:11:46;100136.28;;;-2.58;66.91
37792;BME280;29527;55.766;37.570;2022-12-18T14:14:15;100146.72;;;-2.56;66.38
37792;BME280;29527;55.766;37.570;2022-12-18T14:16:41;100113.06;;;-2.75;66.37
37792;BME280;29527;55.766;37.570;2022-12-18T14:19:12;100155.47;;;-2.56;66.54
37792;BME280;29527;55.766;37.570;2022-12-18T14:21:40;100165.06;;;-2.56;65.66
37792;BME280;29527;55.766;37.570;2022-12-18T14:26:34;100166.84;;;-2.58;65.33
37792;BME280;29527;55.766;37.570;2022-12-18T14:32:23;100177.28;;;-2.55;66.17
37792;BME280;29527;55.766;37.570;2022-12-18T14:34:53;100183.63;;;-2.67;65.39
37792;BME280;29527;55.766;37.570;2022-12-18T14:37:26;100173.50;;;-2.84;65.16
37792;BME280;29527;55.766;37.570;2022-12-18T14:39:57;100193.34;;;-2.72;65.07